Time;durP1;ratioP1;P1;durP2;ratioP2;P2;SDS_P1;SDS_P2;PMS_P1;PMS_P2;Temp;Humidity;BMP_temperature;BMP_pressure;BME280_temperature;BME280_humidity;BME280_pressure;Samples;Min_cycle;Max_cycle;Signal;HPM_P1;HPM_P2
2021/07/25 00:02:09;;;;;;;;;;;19.70;93.10;;;;;;4333045;33;44832;-92
2021/07/25 00:04:44;;;;;;;;;;;19.60;93.00;;;;;;4337479;33;44522;-92
2021/07/25 00:07:17;;;;;;;;;;;19.70;93.10;;;;;;4348868;33;44815;-92
2021/07/25 00:09:44;;;;;;;;;;;19.60;93.10;;;;;;4348889;33;43956;-92
2021/07/25 00:12:14;;;;;;;;;;;19.60;93.10;;;;;;4348175;33;42761;-90
2021/07/25 00:14:41;;;;;;;;;;;19.60;93.20;;;;;;4347640;33;44952;-91
2021/07/25 00:17:09;;;;;;;;;;;19.50;93.20;;;;;;4347522;33;45884;-92
2021/07/25 00:19:39;;;;;;;;;;;19.50;93.20;;;;;;4347754;33;44148;-91
2021/07/25 00:22:07;;;;;;;;;;;19.50;93.20;;;;;;4347474;33;44797;-92
2021/07/25 00:24:39;;;;;;;;;;;19.40;93.20;;;;;;4347336;33;43594;-92
2021/07/25 00:27:09;;;;;;;;;;;19.40;93.30;;;;;;4348054;33;44935;-92
2021/07/25 00:29:38;;;;;;;;;;;19.40;93.20;;;;;;4347809;33;43853;-92
2021/07/25 00:32:10;;;;;;;;;;;19.40;93.30;;;;;;4348744;33;44803;-93
2021/07/25 00:34:40;;;;;;;;;;;19.40;93.30;;;;;;4347831;33;45346;-93
2021/07/25 00:37:13;;;;;;;;;;;19.40;93.30;;;;;;4348739;33;20005;-92
2021/07/25 00:39:43;;;;;;;;;;;19.40;93.30;;;;;;4347270;33;45470;-92
2021/07/25 00:42:12;;;;;;;;;;;19.30;93.30;;;;;;4347334;33;44074;-92
2021/07/25 00:44:42;;;;;;;;;;;19.30;93.30;;;;;;4348060;33;45249;-93
2021/07/25 00:47:12;;;;;;;;;;;19.30;93.30;;;;;;4348118;33;45371;-92
2021/07/25 00:49:40;;;;;;;;;;;19.30;93.30;;;;;;4347793;33;45330;-93
2021/07/25 00:52:08;;;;;;;;;;;19.30;93.30;;;;;;4347241;33;44396;-93
2021/07/25 00:54:36;;;;;;;;;;;19.30;93.30;;;;;;4346897;33;44659;-93
2021/07/25 00:57:05;;;;;;;;;;;19.30;93.30;;;;;;4347010;33;44792;-93
2021/07/25 00:59:33;;;;;;;;;;;19.30;93.30;;;;;;4348348;33;45705;-92
2021/07/25 01:02:00;;;;;;;;;;;19.30;93.70;;;;;;4346880;33;43935;-93
2021/07/25 01:04:33;;;;;;;;;;;19.30;93.30;;;;;;4348048;33;44297;-93
2021/07/25 01:07:03;;;;;;;;;;;19.30;93.30;;;;;;4347301;33;42667;-92
2021/07/25 01:09:31;;;;;;;;;;;19.30;93.30;;;;;;4347146;33;45702;-92
2021/07/25 01:12:04;;;;;;;;;;;19.20;93.30;;;;;;4347148;33;44673;-92
2021/07/25 01:14:38;;;;;;;;;;;19.30;93.30;;;;;;4347251;33;44828;-93
2021/07/25 01:17:27;;;;;;;;;;;19.20;93.30;;;;;;4347774;33;45399;-93
2021/07/25 01:19:55;;;;;;;;;;;19.30;93.30;;;;;;4347450;33;45131;-92
2021/07/25 01:22:27;;;;;;;;;;;19.20;93.30;;;;;;4347642;33;44322;-92
2021/07/25 01:25:03;;;;;;;;;;;19.20;93.30;;;;;;4347293;33;44946;-92
2021/07/25 01:27:37;;;;;;;;;;;19.30;93.30;;;;;;4347030;33;44210;-92
2021/07/25 01:30:10;;;;;;;;;;;19.20;93.30;;;;;;4346945;33;44476;-93
2021/07/25 01:32:37;;;;;;;;;;;19.20;93.30;;;;;;4346461;33;44813;-92
2021/07/25 01:35:08;;;;;;;;;;;19.30;93.30;;;;;;4346899;33;45242;-92
2021/07/25 01:37:39;;;;;;;;;;;19.30;93.30;;;;;;4346894;33;44065;-93
2021/07/25 01:40:19;;;;;;;;;;;19.30;93.20;;;;;;4348010;33;20461;-92
2021/07/25 01:42:51;;;;;;;;;;;19.30;93.20;;;;;;4346809;33;45044;-92
2021/07/25 01:45:21;;;;;;;;;;;19.30;93.20;;;;;;4346795;33;45470;-92
2021/07/25 01:47:48;;;;;;;;;;;19.30;93.20;;;;;;4346186;33;44308;-93
2021/07/25 01:50:18;;;;;;;;;;;19.30;93.20;;;;;;4345991;33;44207;-91
2021/07/25 01:52:48;;;;;;;;;;;19.30;93.20;;;;;;4347379;33;44043;-93
2021/07/25 01:55:16;;;;;;;;;;;19.30;93.20;;;;;;4346408;33;44214;-94
2021/07/25 01:57:54;;;;;;;;;;;19.30;93.20;;;;;;4346564;33;44677;-92
2021/07/25 02:00:26;;;;;;;;;;;19.30;93.20;;;;;;4346472;33;43818;-92
2021/07/25 02:02:56;;;;;;;;;;;19.30;93.20;;;;;;4345746;33;44512;-92
2021/07/25 02:05:32;;;;;;;;;;;19.30;93.20;;;;;;4346707;33;43737;-92
2021/07/25 02:08:05;;;;;;;;;;;19.30;93.20;;;;;;4346335;33;45030;-92
2021/07/25 02:10:35;;;;;;;;;;;19.30;93.20;;;;;;4347211;33;20005;-92
2021/07/25 02:13:08;;;;;;;;;;;19.30;93.20;;;;;;4345777;33;44435;-92
2021/07/25 02:15:36;;;;;;;;;;;19.30;93.20;;;;;;4346386;33;44719;-91
2021/07/25 02:18:03;;;;;;;;;;;19.30;93.20;;;;;;4346931;33;45282;-92
2021/07/25 02:20:33;;;;;;;;;;;19.30;93.20;;;;;;4347218;33;44138;-92
2021/07/25 02:23:03;;;;;;;;;;;19.30;93.20;;;;;;4346100;33;45455;-92
2021/07/25 02:25:38;;;;;;;;;;;19.30;93.20;;;;;;4346097;33;45572;-92
2021/07/25 02:28:08;;;;;;;;;;;19.30;93.20;;;;;;4346108;33;44714;-92
2021/07/25 02:30:43;;;;;;;;;;;19.20;93.10;;;;;;4345786;33;44215;-92
2021/07/25 02:33:13;;;;;;;;;;;19.30;93.20;;;;;;4345978;33;44631;-90
2021/07/25 02:35:45;;;;;;;;;;;19.20;93.10;;;;;;4346787;33;44646;-91
2021/07/25 02:38:12;;;;;;;;;;;19.30;93.20;;;;;;4345684;33;43856;-91
2021/07/25 02:40:43;;;;;;;;;;;19.20;93.10;;;;;;4346742;33;19997;-91
2021/07/25 02:43:10;;;;;;;;;;;19.20;93.10;;;;;;4345686;33;45116;-91
2021/07/25 02:45:37;;;;;;;;;;;19.20;93.10;;;;;;4345748;33;44447;-92
2021/07/25 02:48:10;;;;;;;;;;;19.20;93.10;;;;;;4345412;33;44779;-91
2021/07/25 02:50:40;;;;;;;;;;;19.20;93.10;;;;;;4347048;33;43459;-92
2021/07/25 02:53:12;;;;;;;;;;;19.20;93.10;;;;;;4345881;33;42740;-92
2021/07/25 02:55:40;;;;;;;;;;;19.20;93.10;;;;;;4346700;33;44225;-92
2021/07/25 02:58:10;;;;;;;;;;;19.20;93.10;;;;;;4345776;33;45990;-91
2021/07/25 03:00:40;;;;;;;;;;;19.20;93.20;;;;;;4345782;33;43811;-93
2021/07/25 03:03:10;;;;;;;;;;;19.20;93.20;;;;;;4346490;33;45445;-92
2021/07/25 03:05:45;;;;;;;;;;;19.20;93.20;;;;;;4349074;33;45430;-92
2021/07/25 03:08:13;;;;;;;;;;;19.20;93.20;;;;;;4348610;33;43084;-93
2021/07/25 03:10:43;;;;;;;;;;;19.10;93.20;;;;;;4349348;33;20023;-92
2021/07/25 03:13:13;;;;;;;;;;;19.10;93.20;;;;;;4337128;33;20010;-92
2021/07/25 03:15:46;;;;;;;;;;;19.10;93.20;;;;;;4348316;33;44792;-92
2021/07/25 03:18:13;;;;;;;;;;;19.10;93.30;;;;;;4349023;33;45316;-92
2021/07/25 03:20:44;;;;;;;;;;;19.10;93.30;;;;;;4348776;33;44260;-91
2021/07/25 03:23:11;;;;;;;;;;;19.10;93.30;;;;;;4348566;33;44477;-90
2021/07/25 03:25:38;;;;;;;;;;;19.10;93.30;;;;;;4348518;33;44978;-92
2021/07/25 03:28:05;;;;;;;;;;;19.10;93.20;;;;;;4348530;33;43729;-92
2021/07/25 03:30:33;;;;;;;;;;;19.10;93.20;;;;;;4348783;33;45904;-93
2021/07/25 03:33:02;;;;;;;;;;;19.10;93.30;;;;;;4348105;33;45697;-92
2021/07/25 03:35:35;;;;;;;;;;;19.10;93.20;;;;;;4348409;33;43854;-92
2021/07/25 03:38:04;;;;;;;;;;;19.10;93.30;;;;;;4348577;33;44962;-92
2021/07/25 03:40:32;;;;;;;;;;;19.10;93.30;;;;;;4349225;33;44844;-92
2021/07/25 03:42:59;;;;;;;;;;;19.10;93.30;;;;;;4348082;33;44752;-92
2021/07/25 03:45:27;;;;;;;;;;;19.10;93.20;;;;;;4348354;33;45296;-91
2021/07/25 03:47:56;;;;;;;;;;;19.10;93.20;;;;;;4347872;33;43216;-92
2021/07/25 03:50:32;;;;;;;;;;;19.10;93.20;;;;;;4348332;33;44777;-92
2021/07/25 03:52:59;;;;;;;;;;;19.00;93.20;;;;;;4348289;33;44167;-91
2021/07/25 03:55:29;;;;;;;;;;;19.00;93.20;;;;;;4348717;33;42149;-91
2021/07/25 03:57:59;;;;;;;;;;;19.00;93.20;;;;;;4347966;33;44255;-91
2021/07/25 04:00:29;;;;;;;;;;;19.00;93.20;;;;;;4347566;33;45779;-91
2021/07/25 04:02:59;;;;;;;;;;;19.00;93.20;;;;;;4348582;33;43667;-92
2021/07/25 04:05:27;;;;;;;;;;;19.00;93.30;;;;;;4347389;33;44309;-91
2021/07/25 04:07:54;;;;;;;;;;;19.00;93.30;;;;;;4348598;33;44694;-92
2021/07/25 04:10:27;;;;;;;;;;;18.90;93.30;;;;;;4335550;33;45488;-92
2021/07/25 04:12:59;;;;;;;;;;;18.90;93.30;;;;;;4347276;33;43793;-92
2021/07/25 04:15:26;;;;;;;;;;;18.90;93.40;;;;;;4346580;33;44746;-91
2021/07/25 04:17:56;;;;;;;;;;;18.80;93.40;;;;;;4347644;33;45388;-91
2021/07/25 04:20:29;;;;;;;;;;;18.80;93.50;;;;;;4347794;33;44190;-91
2021/07/25 04:23:01;;;;;;;;;;;18.80;93.50;;;;;;4348299;33;43022;-92
2021/07/25 04:25:34;;;;;;;;;;;18.70;93.60;;;;;;4348499;33;44284;-90
2021/07/25 04:28:05;;;;;;;;;;;18.70;93.60;;;;;;4347494;33;45606;-91
2021/07/25 04:30:37;;;;;;;;;;;18.70;93.60;;;;;;4335128;33;43989;-90
2021/07/25 04:33:05;;;;;;;;;;;18.70;93.60;;;;;;4347144;33;43537;-89
2021/07/25 04:35:38;;;;;;;;;;;18.70;93.70;;;;;;4346745;33;44280;-88
2021/07/25 04:38:06;;;;;;;;;;;18.60;93.80;;;;;;4346653;33;45358;-89
2021/07/25 04:40:33;;;;;;;;;;;18.60;93.80;;;;;;4346582;33;45534;-86
2021/07/25 04:43:03;;;;;;;;;;;18.60;93.80;;;;;;4346860;33;44946;-89
2021/07/25 04:45:59;;;;;;;;;;;18.60;93.90;;;;;;4348170;33;19993;-89
2021/07/25 04:48:38;;;;;;;;;;;18.60;93.90;;;;;;4346460;33;43076;-88
2021/07/25 04:51:06;;;;;;;;;;;18.60;94.00;;;;;;4347922;33;44178;-90
2021/07/25 04:53:39;;;;;;;;;;;18.60;94.00;;;;;;4348111;33;45603;-90
2021/07/25 04:56:11;;;;;;;;;;;18.60;94.00;;;;;;4347278;33;44683;-90
2021/07/25 04:58:50;;;;;;;;;;;18.60;93.90;;;;;;4346712;33;42771;-91
2021/07/25 05:01:24;;;;;;;;;;;18.60;93.90;;;;;;4347347;33;42780;-90
2021/07/25 05:03:51;;;;;;;;;;;18.60;93.90;;;;;;4347274;33;42857;-90
2021/07/25 05:06:20;;;;;;;;;;;18.60;94.00;;;;;;4347249;33;44044;-90
2021/07/25 05:08:47;;;;;;;;;;;18.60;94.00;;;;;;4346516;33;45748;-91
2021/07/25 05:11:26;;;;;;;;;;;18.60;94.00;;;;;;4346357;33;45132;-89
2021/07/25 05:13:57;;;;;;;;;;;18.70;94.00;;;;;;4348145;33;43306;-92
2021/07/25 05:16:34;;;;;;;;;;;18.60;94.00;;;;;;4347801;33;20029;-92
2021/07/25 05:19:10;;;;;;;;;;;18.60;94.40;;;;;;4347990;33;45439;-91
2021/07/25 05:21:40;;;;;;;;;;;18.60;94.00;;;;;;4346579;33;42193;-90
2021/07/25 05:24:13;;;;;;;;;;;18.60;94.10;;;;;;4347122;33;44502;-88
2021/07/25 05:26:43;;;;;;;;;;;18.60;94.20;;;;;;4345806;33;43866;-88
2021/07/25 05:29:14;;;;;;;;;;;18.60;94.20;;;;;;4347242;33;44468;-88
2021/07/25 05:31:46;;;;;;;;;;;18.60;94.30;;;;;;4346136;33;44608;-88
2021/07/25 05:34:19;;;;;;;;;;;18.60;94.30;;;;;;4346273;33;44108;-91
2021/07/25 05:36:54;;;;;;;;;;;18.60;94.40;;;;;;4346194;33;45181;-92
2021/07/25 05:39:22;;;;;;;;;;;18.50;94.30;;;;;;4345879;33;43187;-92
2021/07/25 05:41:49;;;;;;;;;;;18.60;94.40;;;;;;4346043;33;44465;-91
2021/07/25 05:44:16;;;;;;;;;;;18.60;94.40;;;;;;4345730;33;44436;-90
2021/07/25 05:46:49;;;;;;;;;;;18.60;94.40;;;;;;4346715;33;44227;-90
2021/07/25 05:49:20;;;;;;;;;;;18.60;94.50;;;;;;4345938;33;44450;-89
2021/07/25 05:51:47;;;;;;;;;;;18.60;94.50;;;;;;4346891;33;43034;-90
2021/07/25 05:54:20;;;;;;;;;;;18.60;94.50;;;;;;4345506;33;43942;-90
2021/07/25 05:56:49;;;;;;;;;;;18.60;94.50;;;;;;4347105;33;45712;-89
2021/07/25 05:59:23;;;;;;;;;;;18.60;94.60;;;;;;4346039;33;45486;-88
2021/07/25 06:01:51;;;;;;;;;;;18.60;94.60;;;;;;4346370;33;42564;-90
2021/07/25 06:04:25;;;;;;;;;;;18.60;94.60;;;;;;4345252;33;44366;-90
2021/07/25 06:06:53;;;;;;;;;;;18.60;94.60;;;;;;4346056;33;44416;-87
2021/07/25 06:09:21;;;;;;;;;;;18.60;94.60;;;;;;4346702;33;43962;-91
2021/07/25 06:11:55;;;;;;;;;;;18.60;94.70;;;;;;4345525;33;43629;-88
2021/07/25 06:14:31;;;;;;;;;;;18.60;94.70;;;;;;4345479;33;42950;-89
2021/07/25 06:17:03;;;;;;;;;;;18.60;94.70;;;;;;4346417;33;20001;-89
2021/07/25 06:19:33;;;;;;;;;;;18.60;94.70;;;;;;4345775;33;44283;-91
2021/07/25 06:22:07;;;;;;;;;;;18.60;94.70;;;;;;4346706;33;44298;-88
2021/07/25 06:24:37;;;;;;;;;;;18.60;94.70;;;;;;4345433;33;43890;-89
2021/07/25 06:27:07;;;;;;;;;;;18.70;94.80;;;;;;4345467;33;44585;-91
2021/07/25 06:29:34;;;;;;;;;;;18.60;94.80;;;;;;4345806;33;43967;-87
2021/07/25 06:32:01;;;;;;;;;;;18.60;94.80;;;;;;4345569;33;45567;-90
2021/07/25 06:34:37;;;;;;;;;;;18.60;94.80;;;;;;4345469;33;42690;-90
2021/07/25 06:37:04;;;;;;;;;;;18.60;94.80;;;;;;4344984;33;43875;-89
2021/07/25 06:39:35;;;;;;;;;;;18.60;94.90;;;;;;4345019;33;44707;-90
2021/07/25 06:42:11;;;;;;;;;;;18.70;94.90;;;;;;4344470;33;45621;-89
2021/07/25 06:44:44;;;;;;;;;;;18.70;94.90;;;;;;4346045;33;43941;-87
2021/07/25 06:47:13;;;;;;;;;;;18.70;94.80;;;;;;4345443;33;20001;-90
2021/07/25 06:49:45;;;;;;;;;;;18.70;94.90;;;;;;4345197;33;44075;-89
2021/07/25 06:52:18;;;;;;;;;;;18.70;94.90;;;;;;4346227;33;44389;-90
2021/07/25 06:54:54;;;;;;;;;;;18.70;94.90;;;;;;4344998;33;43053;-89
2021/07/25 06:57:23;;;;;;;;;;;18.80;94.90;;;;;;4345246;33;43478;-92
2021/07/25 06:59:51;;;;;;;;;;;18.80;94.90;;;;;;4345292;33;45250;-92
2021/07/25 07:02:18;;;;;;;;;;;18.80;94.90;;;;;;4345652;33;42658;-88
2021/07/25 07:04:46;;;;;;;;;;;18.80;94.90;;;;;;4344669;33;43926;-90
2021/07/25 07:07:19;;;;;;;;;;;18.80;94.90;;;;;;4344859;33;43275;-90
2021/07/25 07:09:49;;;;;;;;;;;18.90;94.90;;;;;;4345015;33;45999;-91
2021/07/25 07:12:17;;;;;;;;;;;18.90;94.90;;;;;;4344327;33;44268;-88
2021/07/25 07:14:44;;;;;;;;;;;18.90;94.90;;;;;;4344797;33;43469;-87
2021/07/25 07:17:13;;;;;;;;;;;18.90;94.90;;;;;;4346392;33;19998;-90
2021/07/25 07:19:41;;;;;;;;;;;18.90;94.90;;;;;;4344452;33;43042;-91
2021/07/25 07:22:23;;;;;;;;;;;19.00;94.90;;;;;;4344450;33;44141;-89
2021/07/25 07:24:53;;;;;;;;;;;19.00;94.90;;;;;;4345625;33;44018;-91
2021/07/25 07:27:24;;;;;;;;;;;19.00;94.90;;;;;;4345758;33;44534;-86
2021/07/25 07:29:59;;;;;;;;;;;19.00;94.90;;;;;;4345455;33;45183;-88
2021/07/25 07:32:30;;;;;;;;;;;19.00;94.90;;;;;;4345086;33;43474;-89
2021/07/25 07:35:00;;;;;;;;;;;19.10;95.00;;;;;;4344885;33;43744;-89
2021/07/25 07:37:27;;;;;;;;;;;19.10;94.90;;;;;;4345268;33;42715;-90
2021/07/25 07:39:57;;;;;;;;;;;19.10;94.80;;;;;;4344129;33;42666;-90
2021/07/25 07:42:29;;;;;;;;;;;19.10;94.80;;;;;;4343981;33;44172;-91
2021/07/25 07:44:56;;;;;;;;;;;19.20;94.90;;;;;;4345620;33;43470;-91
2021/07/25 07:47:26;;;;;;;;;;;19.20;94.90;;;;;;4344518;33;44321;-91
2021/07/25 07:49:53;;;;;;;;;;;19.20;94.80;;;;;;4346965;33;43868;-88
2021/07/25 07:52:29;;;;;;;;;;;19.20;94.80;;;;;;4347022;33;44368;-89
2021/07/25 07:54:56;;;;;;;;;;;19.30;94.80;;;;;;4346859;33;44263;-90
2021/07/25 07:57:31;;;;;;;;;;;19.30;94.90;;;;;;4348006;33;44955;-87
2021/07/25 08:00:01;;;;;;;;;;;19.30;94.90;;;;;;4348213;33;43609;-91
2021/07/25 08:02:28;;;;;;;;;;;19.30;94.80;;;;;;4347556;33;45743;-92
2021/07/25 08:04:57;;;;;;;;;;;19.40;95.00;;;;;;4346611;33;42788;-91
2021/07/25 08:07:27;;;;;;;;;;;19.40;94.90;;;;;;4347651;33;44061;-89
2021/07/25 08:09:57;;;;;;;;;;;19.40;94.80;;;;;;4348386;33;44425;-92
2021/07/25 08:12:27;;;;;;;;;;;19.50;94.80;;;;;;4348074;33;45301;-89
2021/07/25 08:14:54;;;;;;;;;;;19.40;94.80;;;;;;4348079;33;44265;-91
2021/07/25 08:17:26;;;;;;;;;;;19.50;94.80;;;;;;4348111;33;43341;-92
2021/07/25 08:19:57;;;;;;;;;;;19.50;94.80;;;;;;4348731;33;20002;-86
2021/07/25 08:22:29;;;;;;;;;;;19.50;94.80;;;;;;4346379;33;44017;-91
2021/07/25 08:25:06;;;;;;;;;;;19.50;94.80;;;;;;4346501;33;43923;-87
2021/07/25 08:27:42;;;;;;;;;;;19.60;94.80;;;;;;4346322;33;43820;-89
2021/07/25 08:30:09;;;;;;;;;;;19.60;94.70;;;;;;4347779;33;44064;-89
2021/07/25 08:32:40;;;;;;;;;;;19.60;94.80;;;;;;4347292;33;43486;-85
2021/07/25 08:35:11;;;;;;;;;;;19.70;94.80;;;;;;4346523;33;43208;-90
2021/07/25 08:37:38;;;;;;;;;;;19.70;94.80;;;;;;4345744;33;44403;-89
2021/07/25 08:40:11;;;;;;;;;;;19.70;94.70;;;;;;4347510;33;45705;-90
2021/07/25 08:42:49;;;;;;;;;;;19.70;94.70;;;;;;4347337;33;44198;-90
2021/07/25 08:45:22;;;;;;;;;;;19.70;94.70;;;;;;4346761;33;42790;-83
2021/07/25 08:48:15;;;;;;;;;;;19.80;94.70;;;;;;4346894;33;43956;-82
2021/07/25 08:51:05;;;;;;;;;;;19.80;94.70;;;;;;4344312;33;20036;-90
2021/07/25 08:53:43;;;;;;;;;;;19.80;94.60;;;;;;4333917;33;44140;-86
2021/07/25 08:56:17;;;;;;;;;;;19.80;94.60;;;;;;4346770;33;42757;-90
2021/07/25 08:58:52;;;;;;;;;;;19.80;94.60;;;;;;4347177;33;44130;-89
2021/07/25 09:01:25;;;;;;;;;;;19.80;94.60;;;;;;4346409;33;44493;-89
2021/07/25 09:03:54;;;;;;;;;;;19.80;94.50;;;;;;4346957;33;43616;-90
2021/07/25 09:06:22;;;;;;;;;;;19.90;94.60;;;;;;4346643;33;42544;-92
2021/07/25 09:08:58;;;;;;;;;;;19.80;94.60;;;;;;4346728;33;42612;-88
2021/07/25 09:11:36;;;;;;;;;;;19.90;94.60;;;;;;4346111;33;43946;-86
2021/07/25 09:14:08;;;;;;;;;;;19.90;94.50;;;;;;4345589;33;42648;-90
2021/07/25 09:16:37;;;;;;;;;;;19.90;94.50;;;;;;4345333;33;42835;-85
2021/07/25 09:19:16;;;;;;;;;;;19.90;94.40;;;;;;4345375;33;43360;-88
2021/07/25 09:21:55;;;;;;;;;;;20.00;94.60;;;;;;4346547;33;20005;-84
2021/07/25 09:24:34;;;;;;;;;;;20.00;94.50;;;;;;4346463;33;42415;-87
2021/07/25 09:27:05;;;;;;;;;;;20.00;94.40;;;;;;4345410;33;44731;-84
2021/07/25 09:29:36;;;;;;;;;;;20.00;94.40;;;;;;4346349;33;44266;-84
2021/07/25 09:32:16;;;;;;;;;;;20.10;94.50;;;;;;4345475;33;44116;-87
2021/07/25 09:34:55;;;;;;;;;;;20.10;94.40;;;;;;4346360;33;44701;-89
2021/07/25 09:37:30;;;;;;;;;;;20.10;94.40;;;;;;4344898;33;42209;-85
2021/07/25 09:40:03;;;;;;;;;;;20.10;94.40;;;;;;4345099;33;45662;-83
2021/07/25 09:42:38;;;;;;;;;;;20.10;94.40;;;;;;4345992;33;42190;-87
2021/07/25 09:45:11;;;;;;;;;;;20.10;94.40;;;;;;4344930;33;45642;-89
2021/07/25 09:47:41;;;;;;;;;;;20.10;94.30;;;;;;4346143;33;44642;-84
2021/07/25 09:50:26;;;;;;;;;;;20.20;94.30;;;;;;4344486;33;43299;-83
2021/07/25 09:53:00;;;;;;;;;;;20.20;94.30;;;;;;4347013;33;20001;-85
2021/07/25 09:55:31;;;;;;;;;;;20.20;94.20;;;;;;4345055;33;44030;-82
2021/07/25 09:57:58;;;;;;;;;;;20.20;94.20;;;;;;4346224;33;45820;-84
2021/07/25 10:00:36;;;;;;;;;;;20.20;94.20;;;;;;4345080;33;42678;-84
2021/07/25 10:03:32;;;;;;;;;;;20.20;94.10;;;;;;4344587;33;42585;-92
2021/07/25 10:06:00;;;;;;;;;;;20.20;94.00;;;;;;4346345;33;44799;-85
2021/07/25 10:08:30;;;;;;;;;;;20.30;93.80;;;;;;4344286;33;43792;-88
2021/07/25 10:11:00;;;;;;;;;;;20.30;93.90;;;;;;4345230;33;44967;-89
2021/07/25 10:13:36;;;;;;;;;;;20.40;93.80;;;;;;4345701;33;45399;-86
2021/07/25 10:16:08;;;;;;;;;;;20.40;93.80;;;;;;4344865;33;44259;-91
2021/07/25 10:18:44;;;;;;;;;;;20.40;93.60;;;;;;4344785;33;44089;-88
2021/07/25 10:21:17;;;;;;;;;;;20.40;93.30;;;;;;4344699;33;42931;-85
2021/07/25 10:23:46;;;;;;;;;;;20.50;93.00;;;;;;4345325;33;20036;-83
2021/07/25 10:26:23;;;;;;;;;;;20.50;93.30;;;;;;4345716;33;44056;-83
2021/07/25 10:28:52;;;;;;;;;;;20.60;93.30;;;;;;4344863;33;43934;-84
2021/07/25 10:31:28;;;;;;;;;;;20.60;93.20;;;;;;4345224;33;44266;-84
2021/07/25 10:33:58;;;;;;;;;;;20.60;93.20;;;;;;4345590;33;42839;-85
2021/07/25 10:36:25;;;;;;;;;;;20.70;93.20;;;;;;4344307;33;45809;-82
2021/07/25 10:38:53;;;;;;;;;;;20.70;93.10;;;;;;4345565;33;45365;-83
2021/07/25 10:41:24;;;;;;;;;;;20.80;93.00;;;;;;4345461;33;44429;-85
2021/07/25 10:43:56;;;;;;;;;;;20.80;92.80;;;;;;4345097;33;42809;-87
2021/07/25 10:46:30;;;;;;;;;;;20.80;92.90;;;;;;4345176;33;43877;-85
2021/07/25 10:49:15;;;;;;;;;;;20.80;93.00;;;;;;4344445;33;45306;-84
2021/07/25 10:51:59;;;;;;;;;;;20.90;93.00;;;;;;4344281;33;43045;-86
2021/07/25 10:54:26;;;;;;;;;;;20.90;92.80;;;;;;4345030;33;20001;-82
2021/07/25 10:57:00;;;;;;;;;;;20.80;92.60;;;;;;4344836;33;44186;-89
2021/07/25 10:59:40;;;;;;;;;;;20.80;92.50;;;;;;4343902;33;42992;-83
2021/07/25 11:02:32;;;;;;;;;;;20.80;92.90;;;;;;4343574;33;43781;-87
2021/07/25 11:05:09;;;;;;;;;;;20.80;92.50;;;;;;4329756;33;43391;-84
2021/07/25 11:07:42;;;;;;;;;;;20.90;92.30;;;;;;4344108;33;44261;-83
2021/07/25 11:10:16;;;;;;;;;;;20.80;92.60;;;;;;4345087;33;44094;-83
2021/07/25 11:12:52;;;;;;;;;;;20.80;92.50;;;;;;4345253;33;44228;-85
2021/07/25 11:15:28;;;;;;;;;;;20.80;92.50;;;;;;4345188;33;44995;-83
2021/07/25 11:18:01;;;;;;;;;;;20.80;92.40;;;;;;4345220;33;44075;-84
2021/07/25 11:20:37;;;;;;;;;;;20.90;92.50;;;;;;4345278;33;45694;-84
2021/07/25 11:23:25;;;;;;;;;;;20.90;92.40;;;;;;4343842;33;44010;-85
2021/07/25 11:26:00;;;;;;;;;;;20.90;92.40;;;;;;4342381;33;45341;-88
2021/07/25 11:28:45;;;;;;;;;;;21.00;92.20;;;;;;4347894;33;42112;-83
2021/07/25 11:31:20;;;;;;;;;;;21.00;92.20;;;;;;4347018;33;44854;-83
2021/07/25 11:33:53;;;;;;;;;;;21.00;92.30;;;;;;4347907;33;42450;-85
2021/07/25 11:36:21;;;;;;;;;;;21.10;92.20;;;;;;4346889;33;44254;-83
2021/07/25 11:38:55;;;;;;;;;;;21.10;92.20;;;;;;4346906;33;43928;-85
2021/07/25 11:41:24;;;;;;;;;;;21.20;92.00;;;;;;4346940;33;44580;-84
2021/07/25 11:43:55;;;;;;;;;;;21.10;92.10;;;;;;4346244;33;44441;-83
2021/07/25 11:46:34;;;;;;;;;;;21.20;92.20;;;;;;4346588;33;43428;-84
2021/07/25 11:49:08;;;;;;;;;;;21.20;92.20;;;;;;4346772;33;43168;-82
2021/07/25 11:51:45;;;;;;;;;;;21.20;92.20;;;;;;4346660;33;43379;-85
2021/07/25 11:54:22;;;;;;;;;;;21.20;91.90;;;;;;4347053;33;43447;-84
2021/07/25 11:57:07;;;;;;;;;;;21.20;91.50;;;;;;4348567;33;20480;-83
2021/07/25 11:59:38;;;;;;;;;;;21.30;91.80;;;;;;4347807;33;43790;-86
2021/07/25 12:02:11;;;;;;;;;;;21.30;91.40;;;;;;4346458;33;44447;-87
2021/07/25 12:04:44;;;;;;;;;;;21.40;91.40;;;;;;4346306;33;43639;-84
2021/07/25 12:07:19;;;;;;;;;;;21.40;91.50;;;;;;4347122;33;43988;-84
2021/07/25 12:09:53;;;;;;;;;;;21.40;91.50;;;;;;4346472;33;44002;-88
2021/07/25 12:12:37;;;;;;;;;;;21.50;91.30;;;;;;4346419;33;43198;-87
2021/07/25 12:15:10;;;;;;;;;;;21.50;91.10;;;;;;4346543;33;45177;-85
2021/07/25 12:17:55;;;;;;;;;;;21.50;91.10;;;;;;4347040;33;44018;-88
2021/07/25 12:20:35;;;;;;;;;;;21.60;91.10;;;;;;4347421;33;44584;-83
2021/07/25 12:23:13;;;;;;;;;;;21.60;90.70;;;;;;4347411;33;45349;-89
2021/07/25 12:25:46;;;;;;;;;;;21.60;90.90;;;;;;4347449;33;43971;-85
2021/07/25 12:28:20;;;;;;;;;;;21.70;90.70;;;;;;4346010;33;43458;-90
2021/07/25 12:30:55;;;;;;;;;;;21.80;90.80;;;;;;4346401;33;44849;-88
2021/07/25 12:33:30;;;;;;;;;;;21.80;90.70;;;;;;4346400;33;43155;-87
2021/07/25 12:36:10;;;;;;;;;;;21.80;90.70;;;;;;4345353;33;43900;-88
2021/07/25 12:38:42;;;;;;;;;;;21.90;90.80;;;;;;4345752;33;44048;-87
2021/07/25 12:41:20;;;;;;;;;;;21.90;90.70;;;;;;4346106;33;45278;-88
2021/07/25 12:44:06;;;;;;;;;;;21.90;90.60;;;;;;4347071;33;43576;-89
2021/07/25 12:46:33;;;;;;;;;;;21.90;90.30;;;;;;4346589;33;44697;-88
2021/07/25 12:49:04;;;;;;;;;;;21.90;90.60;;;;;;4345419;33;42574;-86
2021/07/25 12:51:45;;;;;;;;;;;21.90;90.50;;;;;;4345819;33;43983;-89
2021/07/25 12:54:13;;;;;;;;;;;21.90;90.30;;;;;;4345902;33;44031;-90
2021/07/25 12:56:50;;;;;;;;;;;22.00;90.30;;;;;;4345308;33;44593;-87
2021/07/25 12:59:18;;;;;;;;;;;22.00;89.40;;;;;;4345993;33;45832;-87
2021/07/25 13:04:24;;;;;;;;;;;22.00;90.00;;;;;;4346672;33;43798;-86
2021/07/25 13:06:51;;;;;;;;;;;22.00;90.00;;;;;;4346524;33;44173;-87
2021/07/25 13:09:24;;;;;;;;;;;22.10;90.00;;;;;;4345264;33;44776;-84
2021/07/25 13:11:52;;;;;;;;;;;22.10;90.10;;;;;;4345258;33;44014;-86
2021/07/25 13:14:27;;;;;;;;;;;22.10;90.10;;;;;;4346153;33;44035;-85
2021/07/25 13:16:55;;;;;;;;;;;22.10;89.70;;;;;;4346624;33;43685;-87
2021/07/25 13:19:24;;;;;;;;;;;22.10;89.30;;;;;;4345404;33;43026;-88
2021/07/25 13:21:57;;;;;;;;;;;22.10;90.00;;;;;;4345609;33;44227;-84
2021/07/25 13:24:28;;;;;;;;;;;22.10;89.70;;;;;;4346400;33;42239;-88
2021/07/25 13:26:55;;;;;;;;;;;22.20;90.00;;;;;;4344849;33;44143;-84
2021/07/25 13:29:22;;;;;;;;;;;22.20;89.60;;;;;;4346017;33;44030;-84
2021/07/25 13:31:49;;;;;;;;;;;22.20;89.70;;;;;;4346261;33;44172;-85
2021/07/25 13:34:19;;;;;;;;;;;22.20;89.70;;;;;;4344951;33;43769;-88
2021/07/25 13:36:46;;;;;;;;;;;22.20;90.00;;;;;;4344938;33;43447;-83
2021/07/25 13:39:19;;;;;;;;;;;22.20;89.90;;;;;;4345255;33;44111;-84
2021/07/25 13:41:49;;;;;;;;;;;22.20;89.80;;;;;;4346377;33;44202;-87
2021/07/25 13:44:19;;;;;;;;;;;22.20;89.50;;;;;;4345022;33;44438;-84
2021/07/25 13:49:26;;;;;;;;;;;22.20;90.00;;;;;;4345637;33;43478;-83
2021/07/25 13:52:03;;;;;;;;;;;22.10;89.80;;;;;;4344511;33;43366;-85
2021/07/25 13:54:36;;;;;;;;;;;22.10;90.10;;;;;;4345338;33;44251;-88
2021/07/25 13:57:11;;;;;;;;;;;22.10;89.80;;;;;;4344573;33;42492;-83
2021/07/25 13:59:44;;;;;;;;;;;22.00;90.10;;;;;;4346957;33;19993;-84
2021/07/25 14:02:11;;;;;;;;;;;22.00;90.20;;;;;;4345528;33;42527;-87
2021/07/25 14:04:47;;;;;;;;;;;22.00;90.30;;;;;;4344733;33;43474;-86
2021/07/25 14:07:23;;;;;;;;;;;21.90;90.40;;;;;;4345346;33;43207;-83
2021/07/25 14:10:01;;;;;;;;;;;21.90;90.50;;;;;;4345476;33;42861;-88
2021/07/25 14:12:30;;;;;;;;;;;21.90;90.50;;;;;;4345505;33;42286;-83
2021/07/25 14:15:04;;;;;;;;;;;21.90;90.70;;;;;;4344335;33;42622;-87
2021/07/25 14:17:33;;;;;;;;;;;21.80;90.60;;;;;;4345922;33;43494;-87
2021/07/25 14:20:08;;;;;;;;;;;21.90;90.50;;;;;;4344653;33;43039;-88
2021/07/25 14:22:38;;;;;;;;;;;21.80;90.50;;;;;;4344509;33;41880;-87
2021/07/25 14:25:11;;;;;;;;;;;21.80;90.60;;;;;;4345537;33;44110;-83
2021/07/25 14:27:47;;;;;;;;;;;21.90;90.70;;;;;;4344093;33;42907;-87
2021/07/25 14:30:14;;;;;;;;;;;21.90;90.70;;;;;;4346295;33;19993;-84
2021/07/25 14:32:43;;;;;;;;;;;21.90;90.70;;;;;;4345456;33;42387;-84
2021/07/25 14:35:10;;;;;;;;;;;21.90;90.50;;;;;;4345316;33;35292;-85
2021/07/25 14:37:40;;;;;;;;;;;21.90;90.50;;;;;;4345159;33;44235;-84
2021/07/25 14:40:08;;;;;;;;;;;21.90;90.50;;;;;;4345548;33;42572;-88
2021/07/25 14:42:36;;;;;;;;;;;22.00;90.30;;;;;;4345688;33;44023;-86
2021/07/25 14:45:06;;;;;;;;;;;21.90;90.10;;;;;;4343930;33;42976;-87
2021/07/25 14:47:39;;;;;;;;;;;22.00;90.40;;;;;;4345069;33;44118;-88
2021/07/25 14:50:07;;;;;;;;;;;22.00;90.30;;;;;;4345532;33;44227;-86